Terminal Aerodrome Forecast
Issued by NWS Charleston, WV

Home | Current Version | Previous Version | Text Only | Print | Product List | Glossary On
Versions: 1 2 3 4 5 6 7 8 9 10 11 12 13 14 15 16 17 18 19 20 21 22 23
354
FTUS41 KRLX 011130
TAFEKN
TAF
KEKN 011130Z 0112/0212 18007KT P6SM -RA BKN030 OVC060
     FM011400 22006KT P6SM -SHRA OVC035
     FM011700 23007KT 6SM -SHRA HZ VCTS BKN040CB
     FM011900 23009G20KT 6SM -TSRA HZ BKN040CB
     FM020000 VRB03KT P6SM -TSRA BKN050CB
     FM020500 00000KT P6SM -SHRA VCTS OVC050CB=

USA.gov is the U.S. government's official web portal to all federal, state and local government web resources and services.